SWA1672 KFLL-KTPA
Flight info
| Callsign | SWA1672 |
|---|---|
| Flight time | N/A |
| Altitude | 22000 |
| Route | BNICE2 COREA BLFRG3 |
| Aircraft | B38M/M-SADE2E3GHIJ4J7P2RWZ/LB1D1 |
Departure
| Time | 2026-05-04 00:32 |
|---|---|
| Airport | Fort Lauderdale Hollywood International Airport (KFLL) |
Arrival
| Time | N/A |
|---|---|
| Airport | Tampa International Airport (KTPA) |
| Time | Latitude | Longitude | Altitude | Speed | Heading |
|---|---|---|---|---|---|
| 2026-05-03 22:11 | 26.07295 | -80.14126 | 21 ft | 0 kts | 97° |
| 2026-05-03 22:22 | 26.07297 | -80.14138 | 22 ft | 3 kts | 90° |
| 2026-05-03 22:23 | 26.07292 | -80.14166 | 24 ft | 4 kts | 88° |
| 2026-05-03 22:23 | 26.07296 | -80.14184 | 21 ft | 3 kts | 140° |
| 2026-05-03 22:23 | 26.07307 | -80.14191 | 22 ft | 0 kts | 135° |
| 2026-05-03 22:32 | 26.07307 | -80.14190 | 22 ft | 0 kts | 131° |
| 2026-05-03 22:33 | 26.07308 | -80.14186 | 25 ft | 1 kts | 67° |
| 2026-05-03 22:33 | 26.07312 | -80.14185 | 25 ft | 1 kts | 14° |
| 2026-05-03 22:33 | 26.07345 | -80.14189 | 23 ft | 11 kts | 358° |
| 2026-05-03 22:33 | 26.07372 | -80.14190 | 21 ft | 0 kts | 358° |
| 2026-05-03 22:34 | 26.07374 | -80.14190 | 21 ft | 2 kts | 358° |
| 2026-05-03 22:34 | 26.07411 | -80.14190 | 22 ft | 0 kts | 0° |
| 2026-05-03 23:40 | 26.07413 | -80.14190 | 22 ft | 2 kts | 0° |
| 2026-05-03 23:40 | 26.07466 | -80.14214 | 21 ft | 12 kts | 312° |
| 2026-05-03 23:40 | 26.07487 | -80.14313 | 20 ft | 15 kts | 270° |
| 2026-05-03 23:41 | 26.07488 | -80.14439 | 22 ft | 17 kts | 272° |
| 2026-05-03 23:41 | 26.07489 | -80.14569 | 23 ft | 16 kts | 270° |
| 2026-05-03 23:41 | 26.07489 | -80.14706 | 21 ft | 19 kts | 270° |
| 2026-05-03 23:41 | 26.07489 | -80.14867 | 17 ft | 23 kts | 270° |
| 2026-05-03 23:42 | 26.07490 | -80.15036 | 17 ft | 21 kts | 270° |
| 2026-05-03 23:42 | 26.07491 | -80.15197 | 15 ft | 19 kts | 271° |
| 2026-05-03 23:42 | 26.07491 | -80.15327 | 13 ft | 14 kts | 270° |
| 2026-05-03 23:42 | 26.07492 | -80.15388 | 13 ft | 1 kts | 271° |
| 2026-05-03 23:43 | 26.07492 | -80.15401 | 13 ft | 0 kts | 270° |
| 2026-05-03 23:43 | 26.07492 | -80.15408 | 13 ft | 0 kts | 270° |
| 2026-05-03 23:46 | 26.07492 | -80.15409 | 13 ft | 1 kts | 270° |
| 2026-05-03 23:46 | 26.07492 | -80.15469 | 14 ft | 8 kts | 270° |
| 2026-05-03 23:46 | 26.07492 | -80.15479 | 15 ft | 0 kts | 270° |
| 2026-05-03 23:49 | 26.07492 | -80.15505 | 15 ft | 0 kts | 271° |
| 2026-05-03 23:51 | 26.07492 | -80.15519 | 15 ft | 3 kts | 270° |
| 2026-05-03 23:51 | 26.07492 | -80.15521 | 15 ft | 0 kts | 270° |
| 2026-05-03 23:52 | 26.07492 | -80.15539 | 16 ft | 6 kts | 270° |
| 2026-05-03 23:52 | 26.07492 | -80.15590 | 16 ft | 6 kts | 270° |
| 2026-05-03 23:53 | 26.07492 | -80.15604 | 16 ft | 0 kts | 270° |
| 2026-05-03 23:53 | 26.07492 | -80.15621 | 17 ft | 5 kts | 270° |
| 2026-05-03 23:53 | 26.07492 | -80.15626 | 17 ft | 0 kts | 270° |
| 2026-05-03 23:54 | 26.07492 | -80.15639 | 17 ft | 0 kts | 270° |
| 2026-05-03 23:55 | 26.07492 | -80.15660 | 17 ft | 6 kts | 270° |
| 2026-05-03 23:55 | 26.07492 | -80.15666 | 17 ft | 0 kts | 270° |
| 2026-05-03 23:56 | 26.07492 | -80.15672 | 17 ft | 4 kts | 270° |
| 2026-05-03 23:56 | 26.07492 | -80.15707 | 17 ft | 0 kts | 270° |
| 2026-05-03 23:56 | 26.07492 | -80.15708 | 17 ft | 0 kts | 270° |
| 2026-05-03 23:57 | 26.07492 | -80.15724 | 17 ft | 0 kts | 270° |
| 2026-05-04 00:01 | 26.07493 | -80.15776 | 17 ft | 7 kts | 270° |
| 2026-05-04 00:02 | 26.07493 | -80.15828 | 17 ft | 1 kts | 271° |
| 2026-05-04 00:02 | 26.07494 | -80.15856 | 17 ft | 4 kts | 270° |
| 2026-05-04 00:02 | 26.07494 | -80.15863 | 18 ft | 2 kts | 270° |
| 2026-05-04 00:03 | 26.07494 | -80.15875 | 18 ft | 0 kts | 270° |
| 2026-05-04 00:04 | 26.07494 | -80.15877 | 18 ft | 1 kts | 270° |
| 2026-05-04 00:04 | 26.07494 | -80.15888 | 18 ft | 1 kts | 270° |
| 2026-05-04 00:04 | 26.07494 | -80.15893 | 18 ft | 0 kts | 270° |
| 2026-05-04 00:05 | 26.07494 | -80.15925 | 19 ft | 8 kts | 270° |
| 2026-05-04 00:05 | 26.07494 | -80.15949 | 19 ft | 0 kts | 270° |
| 2026-05-04 00:06 | 26.07494 | -80.15950 | 19 ft | 0 kts | 270° |
| 2026-05-04 00:07 | 26.07494 | -80.15963 | 20 ft | 6 kts | 271° |
| 2026-05-04 00:07 | 26.07495 | -80.15981 | 20 ft | 2 kts | 270° |
| 2026-05-04 00:07 | 26.07495 | -80.15986 | 20 ft | 0 kts | 270° |
| 2026-05-04 00:08 | 26.07495 | -80.15987 | 20 ft | 1 kts | 270° |
| 2026-05-04 00:08 | 26.07495 | -80.16034 | 21 ft | 11 kts | 269° |
| 2026-05-04 00:08 | 26.07495 | -80.16111 | 22 ft | 5 kts | 271° |
| 2026-05-04 00:08 | 26.07495 | -80.16112 | 22 ft | 0 kts | 270° |
| 2026-05-04 00:09 | 26.07495 | -80.16115 | 22 ft | 3 kts | 270° |
| 2026-05-04 00:09 | 26.07496 | -80.16143 | 22 ft | 0 kts | 270° |
| 2026-05-04 00:12 | 26.07496 | -80.16152 | 22 ft | 3 kts | 270° |
| 2026-05-04 00:12 | 26.07496 | -80.16153 | 22 ft | 0 kts | 270° |
| 2026-05-04 00:12 | 26.07496 | -80.16154 | 22 ft | 1 kts | 270° |
| 2026-05-04 00:13 | 26.07496 | -80.16176 | 22 ft | 2 kts | 270° |
| 2026-05-04 00:13 | 26.07496 | -80.16178 | 22 ft | 0 kts | 270° |
| 2026-05-04 00:14 | 26.07496 | -80.16185 | 22 ft | 7 kts | 270° |
| 2026-05-04 00:14 | 26.07496 | -80.16232 | 21 ft | 1 kts | 270° |
| 2026-05-04 00:14 | 26.07496 | -80.16233 | 21 ft | 0 kts | 270° |
| 2026-05-04 00:15 | 26.07496 | -80.16235 | 21 ft | 2 kts | 270° |
| 2026-05-04 00:15 | 26.07496 | -80.16247 | 21 ft | 0 kts | 270° |
| 2026-05-04 00:15 | 26.07496 | -80.16251 | 21 ft | 0 kts | 270° |
| 2026-05-04 00:16 | 26.07496 | -80.16254 | 21 ft | 0 kts | 270° |
| 2026-05-04 00:17 | 26.07496 | -80.16258 | 21 ft | 1 kts | 270° |
| 2026-05-04 00:17 | 26.07496 | -80.16261 | 21 ft | 0 kts | 271° |
| 2026-05-04 00:17 | 26.07496 | -80.16262 | 21 ft | 0 kts | 271° |
| 2026-05-04 00:19 | 26.07496 | -80.16270 | 21 ft | 4 kts | 271° |
| 2026-05-04 00:20 | 26.07496 | -80.16309 | 21 ft | 0 kts | 270° |
| 2026-05-04 00:21 | 26.07496 | -80.16328 | 21 ft | 6 kts | 270° |
| 2026-05-04 00:21 | 26.07497 | -80.16348 | 21 ft | 0 kts | 270° |
| 2026-05-04 00:22 | 26.07497 | -80.16363 | 21 ft | 5 kts | 271° |
| 2026-05-04 00:22 | 26.07497 | -80.16387 | 21 ft | 0 kts | 271° |
| 2026-05-04 00:23 | 26.07497 | -80.16388 | 21 ft | 0 kts | 271° |
| 2026-05-04 00:24 | 26.07497 | -80.16421 | 21 ft | 8 kts | 271° |
| 2026-05-04 00:24 | 26.07497 | -80.16431 | 21 ft | 0 kts | 270° |
| 2026-05-04 00:24 | 26.07497 | -80.16445 | 21 ft | 3 kts | 270° |
| 2026-05-04 00:25 | 26.07497 | -80.16483 | 21 ft | 6 kts | 270° |
| 2026-05-04 00:25 | 26.07497 | -80.16538 | 21 ft | 9 kts | 269° |
| 2026-05-04 00:25 | 26.07497 | -80.16561 | 21 ft | 0 kts | 269° |
| 2026-05-04 00:26 | 26.07497 | -80.16564 | 21 ft | 0 kts | 269° |
| 2026-05-04 00:27 | 26.07497 | -80.16574 | 21 ft | 4 kts | 271° |
| 2026-05-04 00:27 | 26.07502 | -80.16611 | 20 ft | 5 kts | 288° |
| 2026-05-04 00:28 | 26.07527 | -80.16640 | 19 ft | 2 kts | 344° |
| 2026-05-04 00:28 | 26.07553 | -80.16643 | 19 ft | 6 kts | 358° |
| 2026-05-04 00:28 | 26.07587 | -80.16643 | 19 ft | 0 kts | 360° |
| 2026-05-04 00:31 | 26.07620 | -80.16643 | 18 ft | 12 kts | 0° |
| 2026-05-04 00:31 | 26.07690 | -80.16597 | 18 ft | 11 kts | 75° |
| 2026-05-04 00:31 | 26.07693 | -80.16565 | 18 ft | 0 kts | 88° |
| 2026-05-04 00:31 | 26.07694 | -80.16548 | 19 ft | 11 kts | 88° |
| 2026-05-04 00:32 | 26.07692 | -80.16133 | 20 ft | 95 kts | 90° |
| 2026-05-04 00:32 | 26.07684 | -80.15145 | 18 ft | 160 kts | 90° |
| 2026-05-04 00:32 | 26.07664 | -80.13838 | 652 ft | 171 kts | 86° |
| 2026-05-04 00:32 | 26.07716 | -80.12531 | 1518 ft | 177 kts | 86° |
| 2026-05-04 00:33 | 26.07791 | -80.11064 | 2034 ft | 201 kts | 79° |
| 2026-05-04 00:33 | 26.08826 | -80.07858 | 3209 ft | 238 kts | 49° |
| 2026-05-04 00:33 | 26.10101 | -80.06749 | 3629 ft | 234 kts | 20° |
| 2026-05-04 00:34 | 26.11646 | -80.06112 | 4253 ft | 238 kts | 17° |
| 2026-05-04 00:34 | 26.13215 | -80.05469 | 5157 ft | 245 kts | 16° |
| 2026-05-04 00:34 | 26.14870 | -80.04934 | 5946 ft | 253 kts | 0° |
| 2026-05-04 00:34 | 26.16639 | -80.05193 | 6554 ft | 263 kts | 339° |
| 2026-05-04 00:35 | 26.18431 | -80.05830 | 7228 ft | 277 kts | 338° |
| 2026-05-04 00:35 | 26.20285 | -80.06514 | 8037 ft | 284 kts | 336° |
| 2026-05-04 00:35 | 26.21945 | -80.07647 | 8923 ft | 279 kts | 311° |
| 2026-05-04 00:35 | 26.23008 | -80.09434 | 9778 ft | 279 kts | 291° |
| 2026-05-04 00:36 | 26.23785 | -80.11459 | 10508 ft | 290 kts | 290° |
| 2026-05-04 00:36 | 26.24575 | -80.13569 | 10992 ft | 308 kts | 290° |
| 2026-05-04 00:36 | 26.25367 | -80.15834 | 11608 ft | 319 kts | 283° |
| 2026-05-04 00:36 | 26.25772 | -80.18218 | 12286 ft | 325 kts | 277° |
| 2026-05-04 00:37 | 26.26138 | -80.20754 | 13200 ft | 325 kts | 277° |
| 2026-05-04 00:37 | 26.26492 | -80.23208 | 14126 ft | 327 kts | 277° |
| 2026-05-04 00:37 | 26.26859 | -80.25778 | 14939 ft | 332 kts | 277° |
| 2026-05-04 00:37 | 26.27222 | -80.28312 | 15906 ft | 331 kts | 276° |
| 2026-05-04 00:38 | 26.27582 | -80.30840 | 16710 ft | 335 kts | 276° |
| 2026-05-04 00:38 | 26.27952 | -80.33432 | 17494 ft | 337 kts | 276° |
| 2026-05-04 00:38 | 26.28315 | -80.35989 | 18296 ft | 339 kts | 276° |
| 2026-05-04 00:38 | 26.28684 | -80.38590 | 19040 ft | 341 kts | 276° |
| 2026-05-04 00:39 | 26.29056 | -80.41210 | 19741 ft | 344 kts | 276° |
| 2026-05-04 00:39 | 26.29430 | -80.43855 | 20415 ft | 347 kts | 276° |
| 2026-05-04 00:39 | 26.29807 | -80.46522 | 21085 ft | 350 kts | 276° |
| 2026-05-04 00:39 | 26.30186 | -80.49212 | 21714 ft | 354 kts | 276° |
| 2026-05-04 00:40 | 26.30571 | -80.51940 | 21934 ft | 356 kts | 276° |
| 2026-05-04 00:40 | 26.30962 | -80.54715 | 21983 ft | 366 kts | 276° |
| 2026-05-04 00:40 | 26.31358 | -80.57536 | 21984 ft | 371 kts | 276° |
| 2026-05-04 00:40 | 26.31757 | -80.60375 | 22006 ft | 372 kts | 276° |
| 2026-05-04 00:41 | 26.32156 | -80.63225 | 22016 ft | 372 kts | 276° |
| 2026-05-04 00:41 | 26.32549 | -80.66035 | 22018 ft | 372 kts | 276° |
| 2026-05-04 00:41 | 26.32947 | -80.68880 | 22020 ft | 372 kts | 276° |
| 2026-05-04 00:41 | 26.33344 | -80.71725 | 22020 ft | 372 kts | 276° |
| 2026-05-04 00:42 | 26.33740 | -80.74573 | 22022 ft | 372 kts | 276° |
| 2026-05-04 00:42 | 26.34137 | -80.77422 | 22020 ft | 372 kts | 276° |
| 2026-05-04 00:42 | 26.34532 | -80.80271 | 22022 ft | 372 kts | 276° |
| 2026-05-04 00:42 | 26.34926 | -80.83114 | 22020 ft | 372 kts | 276° |
| 2026-05-04 00:43 | 26.35322 | -80.85968 | 22020 ft | 372 kts | 276° |
| 2026-05-04 00:43 | 26.35715 | -80.88811 | 22022 ft | 372 kts | 276° |
| 2026-05-04 00:43 | 26.36374 | -80.91598 | 22013 ft | 377 kts | 289° |
| 2026-05-04 00:43 | 26.37804 | -80.94088 | 22020 ft | 388 kts | 306° |
| 2026-05-04 00:44 | 26.39702 | -80.96204 | 22024 ft | 392 kts | 309° |
| 2026-05-04 00:44 | 26.41664 | -80.98320 | 22022 ft | 392 kts | 310° |
| 2026-05-04 00:44 | 26.43638 | -81.00423 | 22022 ft | 393 kts | 310° |
| 2026-05-04 00:44 | 26.45622 | -81.02520 | 22021 ft | 393 kts | 310° |
| 2026-05-04 00:45 | 26.47607 | -81.04611 | 22021 ft | 393 kts | 310° |
| 2026-05-04 00:45 | 26.49596 | -81.06704 | 22021 ft | 393 kts | 310° |
| 2026-05-04 00:45 | 26.51585 | -81.08797 | 22022 ft | 393 kts | 310° |
| 2026-05-04 00:45 | 26.53569 | -81.10887 | 22020 ft | 393 kts | 310° |
| 2026-05-04 00:46 | 26.55557 | -81.12983 | 22020 ft | 393 kts | 310° |
| 2026-05-04 00:46 | 26.57540 | -81.15075 | 22021 ft | 393 kts | 310° |
| 2026-05-04 00:46 | 26.59526 | -81.17171 | 22021 ft | 393 kts | 310° |
| 2026-05-04 00:46 | 26.61511 | -81.19265 | 22021 ft | 393 kts | 310° |
| 2026-05-04 00:47 | 26.63480 | -81.21382 | 22017 ft | 390 kts | 306° |
| 2026-05-04 00:47 | 26.65170 | -81.23674 | 22020 ft | 387 kts | 303° |
| 2026-05-04 00:47 | 26.66867 | -81.26015 | 22022 ft | 387 kts | 303° |
| 2026-05-04 00:47 | 26.68554 | -81.28352 | 22021 ft | 387 kts | 303° |
| 2026-05-04 00:48 | 26.70243 | -81.30696 | 22020 ft | 387 kts | 303° |
| 2026-05-04 00:48 | 26.71931 | -81.33041 | 22021 ft | 387 kts | 303° |
| 2026-05-04 00:48 | 26.73620 | -81.35389 | 22020 ft | 387 kts | 303° |
| 2026-05-04 00:48 | 26.75303 | -81.37731 | 22020 ft | 387 kts | 303° |
| 2026-05-04 00:49 | 26.76992 | -81.40080 | 22022 ft | 387 kts | 303° |
| 2026-05-04 00:49 | 26.78675 | -81.42424 | 22020 ft | 387 kts | 303° |
| 2026-05-04 00:49 | 26.80362 | -81.44775 | 22021 ft | 387 kts | 303° |
| 2026-05-04 00:49 | 26.82048 | -81.47124 | 22021 ft | 387 kts | 303° |
| 2026-05-04 00:50 | 26.83702 | -81.49431 | 22021 ft | 387 kts | 303° |
| 2026-05-04 00:50 | 26.85381 | -81.51773 | 22021 ft | 387 kts | 303° |
| 2026-05-04 00:50 | 26.87061 | -81.54120 | 22021 ft | 387 kts | 303° |
| 2026-05-04 00:50 | 26.88213 | -81.55729 | 22021 ft | 387 kts | 303° |
| 2026-05-04 00:51 | 26.90032 | -81.58270 | 22021 ft | 387 kts | 303° |
| 2026-05-04 00:51 | 26.91712 | -81.60619 | 22021 ft | 387 kts | 303° |
| 2026-05-04 00:51 | 26.93395 | -81.62973 | 22021 ft | 387 kts | 303° |
| 2026-05-04 00:51 | 26.95074 | -81.65323 | 22021 ft | 387 kts | 303° |
| 2026-05-04 00:52 | 26.96755 | -81.67676 | 22021 ft | 387 kts | 303° |
| 2026-05-04 00:52 | 26.98434 | -81.70029 | 22021 ft | 387 kts | 303° |
| 2026-05-04 00:52 | 27.00113 | -81.72383 | 22020 ft | 382 kts | 303° |
| 2026-05-04 00:52 | 27.01722 | -81.74635 | 22048 ft | 358 kts | 302° |
| 2026-05-04 00:53 | 27.03241 | -81.76768 | 21942 ft | 345 kts | 302° |
| 2026-05-04 00:53 | 27.04706 | -81.78825 | 21570 ft | 342 kts | 302° |
| 2026-05-04 00:53 | 27.06224 | -81.80959 | 21112 ft | 348 kts | 302° |
| 2026-05-04 00:53 | 27.07727 | -81.83062 | 20672 ft | 352 kts | 303° |
| 2026-05-04 00:54 | 27.09579 | -81.84919 | 20213 ft | 361 kts | 315° |
| 2026-05-04 00:54 | 27.11576 | -81.86612 | 19827 ft | 360 kts | 314° |
| 2026-05-04 00:54 | 27.13565 | -81.88307 | 19412 ft | 358 kts | 314° |
| 2026-05-04 00:54 | 27.15548 | -81.89989 | 18995 ft | 357 kts | 315° |
| 2026-05-04 00:55 | 27.17521 | -81.91660 | 18574 ft | 355 kts | 315° |
| 2026-05-04 00:55 | 27.19488 | -81.93326 | 18153 ft | 353 kts | 315° |
| 2026-05-04 00:55 | 27.21440 | -81.94979 | 17723 ft | 351 kts | 314° |
| 2026-05-04 00:55 | 27.23382 | -81.96624 | 17280 ft | 349 kts | 315° |
| 2026-05-04 00:56 | 27.25322 | -81.98266 | 16862 ft | 347 kts | 315° |
| 2026-05-04 00:56 | 27.27241 | -81.99894 | 16451 ft | 346 kts | 315° |
| 2026-05-04 00:56 | 27.29161 | -82.01522 | 16055 ft | 344 kts | 315° |
| 2026-05-04 00:56 | 27.30421 | -82.02591 | 15785 ft | 342 kts | 315° |
| 2026-05-04 00:57 | 27.32934 | -82.04724 | 15257 ft | 341 kts | 316° |
| 2026-05-04 00:57 | 27.34821 | -82.06326 | 14846 ft | 340 kts | 316° |
| 2026-05-04 00:57 | 27.36695 | -82.07929 | 14463 ft | 337 kts | 315° |
| 2026-05-04 00:57 | 27.38501 | -82.09602 | 13995 ft | 336 kts | 314° |
| 2026-05-04 00:58 | 27.40319 | -82.11290 | 13289 ft | 340 kts | 315° |
| 2026-05-04 00:58 | 27.42125 | -82.12958 | 12818 ft | 330 kts | 315° |
| 2026-05-04 00:58 | 27.43239 | -82.13985 | 12543 ft | 322 kts | 315° |
| 2026-05-04 00:58 | 27.44866 | -82.15624 | 12119 ft | 307 kts | 310° |
| 2026-05-04 00:59 | 27.46357 | -82.17286 | 11707 ft | 296 kts | 310° |
| 2026-05-04 00:59 | 27.47802 | -82.18879 | 11329 ft | 286 kts | 311° |
| 2026-05-04 00:59 | 27.49215 | -82.20430 | 10863 ft | 282 kts | 311° |
| 2026-05-04 00:59 | 27.50622 | -82.21969 | 10282 ft | 285 kts | 311° |
| 2026-05-04 01:00 | 27.52058 | -82.23535 | 9689 ft | 287 kts | 312° |
| 2026-05-04 01:00 | 27.53489 | -82.25098 | 9095 ft | 285 kts | 312° |
| 2026-05-04 01:00 | 27.54904 | -82.26641 | 8635 ft | 279 kts | 312° |
| 2026-05-04 01:00 | 27.56276 | -82.28138 | 8273 ft | 271 kts | 312° |
| 2026-05-04 01:01 | 27.57616 | -82.29600 | 7953 ft | 266 kts | 312° |
| 2026-05-04 01:01 | 27.58913 | -82.31017 | 7657 ft | 267 kts | 312° |
| 2026-05-04 01:01 | 27.60237 | -82.32464 | 7344 ft | 267 kts | 311° |
| 2026-05-04 01:01 | 27.61567 | -82.33916 | 7032 ft | 266 kts | 312° |
| 2026-05-04 01:02 | 27.62894 | -82.35367 | 6719 ft | 264 kts | 311° |
| 2026-05-04 01:02 | 27.64199 | -82.36794 | 6413 ft | 261 kts | 311° |
| 2026-05-04 01:02 | 27.65504 | -82.38220 | 6097 ft | 260 kts | 311° |
| 2026-05-04 01:02 | 27.66801 | -82.39639 | 5814 ft | 260 kts | 311° |
| 2026-05-04 01:03 | 27.68093 | -82.41066 | 5506 ft | 259 kts | 309° |
| 2026-05-04 01:03 | 27.68955 | -82.42789 | 5145 ft | 250 kts | 281° |
| 2026-05-04 01:03 | 27.69111 | -82.44653 | 4879 ft | 242 kts | 270° |
| 2026-05-04 01:03 | 27.69226 | -82.46542 | 4609 ft | 239 kts | 279° |
| 2026-05-04 01:04 | 27.69857 | -82.48244 | 4264 ft | 242 kts | 302° |
| 2026-05-04 01:04 | 27.71053 | -82.49581 | 4074 ft | 235 kts | 323° |
| 2026-05-04 01:04 | 27.72406 | -82.50420 | 3980 ft | 211 kts | 324° |
| 2026-05-04 01:04 | 27.73403 | -82.51511 | 3843 ft | 188 kts | 308° |
| 2026-05-04 01:05 | 27.74225 | -82.52575 | 3732 ft | 172 kts | 309° |
| 2026-05-04 01:05 | 27.75106 | -82.53217 | 3608 ft | 174 kts | 341° |
| 2026-05-04 01:05 | 27.76032 | -82.53375 | 3575 ft | 177 kts | 351° |
| 2026-05-04 01:05 | 27.77260 | -82.53490 | 3531 ft | 177 kts | 351° |
| 2026-05-04 01:06 | 27.78496 | -82.53510 | 3429 ft | 178 kts | 357° |
| 2026-05-04 01:06 | 27.79733 | -82.53472 | 3310 ft | 177 kts | 358° |